createdAt,value
2022-11-13T00:01:20.972Z,27.70
2022-11-13T00:04:12.614Z,22.97
2022-11-13T00:07:02.254Z,27.60
2022-11-13T00:09:53.119Z,27.20
2022-11-13T00:12:42.148Z,24.73
2022-11-13T00:15:31.661Z,23.20
2022-11-13T00:18:21.186Z,25.13
2022-11-13T00:21:12.369Z,22.97
2022-11-13T00:24:02.070Z,17.53
2022-11-13T00:26:52.757Z,17.03
2022-11-13T00:29:42.608Z,17.65
2022-11-13T00:32:31.916Z,17.15
2022-11-13T00:35:21.173Z,18.90
2022-11-13T00:38:10.644Z,17.10
2022-11-13T00:41:00.151Z,14.50
2022-11-13T00:43:51.725Z,16.53
2022-11-13T00:46:41.659Z,14.77
2022-11-13T00:49:31.454Z,17.30
2022-11-13T00:52:21.550Z,24.85
2022-11-13T00:55:11.146Z,13.80
2022-11-13T00:58:00.777Z,14.27
2022-11-13T01:00:51.571Z,17.87
2022-11-13T01:03:41.389Z,12.70
2022-11-13T01:06:31.102Z,13.07
2022-11-13T01:09:20.597Z,12.90
2022-11-13T01:12:09.937Z,9.70
2022-11-13T01:14:59.562Z,7.37
2022-11-13T01:17:52.034Z,13.17
2022-11-13T01:20:41.627Z,8.73
2022-11-13T01:23:31.404Z,9.47
2022-11-13T01:26:22.319Z,9.03
2022-11-13T01:29:13.697Z,8.60
2022-11-13T01:32:03.183Z,6.67
2022-11-13T01:34:53.710Z,7.00
2022-11-13T01:37:45.224Z,6.23
2022-11-13T01:40:35.322Z,8.20
2022-11-13T01:43:29.430Z,7.88
2022-11-13T01:46:20.881Z,9.32
2022-11-13T01:49:18.105Z,9.80
2022-11-13T01:52:10.769Z,8.23
2022-11-13T01:55:02.324Z,9.37
2022-11-13T01:57:51.735Z,11.30
2022-11-13T02:00:41.056Z,9.70
2022-11-13T02:03:30.480Z,8.53
2022-11-13T02:06:20.278Z,9.17
2022-11-13T02:09:11.958Z,10.33
2022-11-13T02:12:01.779Z,8.65
2022-11-13T02:14:52.682Z,10.80
2022-11-13T02:17:44.691Z,12.23
2022-11-13T02:20:37.807Z,9.27
2022-11-13T02:23:30.824Z,9.00
2022-11-13T02:26:22.715Z,9.80
2022-11-13T02:29:12.160Z,11.73
2022-11-13T03:31:02.230Z,11.27
2022-11-13T03:33:51.565Z,11.03
2022-11-13T03:36:41.191Z,13.63
2022-11-13T03:39:31.085Z,11.57
2022-11-13T03:42:20.085Z,11.83
2022-11-13T03:45:09.766Z,12.57
2022-11-13T03:48:00.589Z,12.47
2022-11-13T03:50:51.187Z,13.03
2022-11-13T03:53:40.987Z,12.47
2022-11-13T03:56:30.686Z,10.57
2022-11-13T03:59:19.882Z,11.97
2022-11-13T04:02:09.100Z,12.47
2022-11-13T04:05:00.523Z,12.83
2022-11-13T04:07:49.673Z,12.40
2022-11-13T04:10:38.916Z,11.70
2022-11-13T04:13:28.370Z,11.40
2022-11-13T04:16:17.679Z,9.43
2022-11-13T04:19:07.296Z,11.00
2022-11-13T04:21:58.157Z,11.80
2022-11-13T04:24:47.017Z,9.13
2022-11-13T04:27:36.847Z,9.63
2022-11-13T04:30:25.983Z,8.97
2022-11-13T04:33:15.266Z,9.47
2022-11-13T04:36:04.836Z,11.23
2022-11-13T04:38:55.433Z,14.17
2022-11-13T04:42:01.685Z,14.20
2022-11-13T04:44:51.254Z,14.03
2022-11-13T04:47:40.753Z,17.67
2022-11-13T04:50:30.234Z,14.73
2022-11-13T04:53:19.628Z,13.40
2022-11-13T04:56:10.559Z,15.37
2022-11-13T04:59:00.179Z,15.30
2022-11-13T05:01:50.241Z,15.73
2022-11-13T05:04:40.215Z,16.17
2022-11-13T05:07:29.709Z,15.60
2022-11-13T05:10:19.498Z,20.10
2022-11-13T05:13:10.750Z,18.97
2022-11-13T05:16:03.627Z,14.57
2022-11-13T05:18:52.970Z,17.47
2022-11-13T05:21:42.526Z,20.50
2022-11-13T05:24:31.865Z,13.33
2022-11-13T05:27:20.921Z,16.67
2022-11-13T05:30:12.846Z,16.63
2022-11-13T05:33:02.451Z,21.10
2022-11-13T05:35:52.323Z,17.07
2022-11-13T05:38:43.086Z,16.67
2022-11-13T05:41:32.715Z,16.33
2022-11-13T05:44:22.358Z,13.97
2022-11-13T05:47:13.247Z,15.33
2022-11-13T05:50:02.585Z,15.03
2022-11-13T05:52:54.261Z,14.83
2022-11-13T05:55:44.378Z,16.40
2022-11-13T05:58:34.394Z,15.83
2022-11-13T06:01:24.614Z,13.20
2022-11-13T06:04:15.604Z,15.37
2022-11-13T06:07:05.249Z,12.83
2022-11-13T06:09:54.998Z,12.20
2022-11-13T06:12:44.670Z,14.67
2022-11-13T06:15:33.950Z,11.93
2022-11-13T06:18:26.775Z,14.37
2022-11-13T06:21:18.723Z,13.50
2022-11-13T06:24:08.227Z,12.40
2022-11-13T06:26:57.789Z,14.80
2022-11-13T06:29:47.371Z,17.30
2022-11-13T06:32:37.140Z,13.47
2022-11-13T06:35:26.456Z,14.80
2022-11-13T06:38:18.351Z,14.43
2022-11-13T06:41:08.511Z,14.90
2022-11-13T06:44:02.345Z,14.30
2022-11-13T06:46:52.645Z,16.13
2022-11-13T06:49:41.975Z,15.67
2022-11-13T06:52:31.337Z,13.93
2022-11-13T06:55:22.162Z,14.67
2022-11-13T06:58:11.798Z,11.43
2022-11-13T07:01:06.771Z,15.00
2022-11-13T07:03:56.304Z,14.53
2022-11-13T07:06:45.917Z,16.80
2022-11-13T07:09:35.525Z,15.40
2022-11-13T07:12:26.470Z,17.80
2022-11-13T07:15:16.736Z,14.80
2022-11-13T07:18:08.843Z,13.73
2022-11-13T07:20:58.236Z,14.53
2022-11-13T07:23:49.578Z,15.52
2022-11-13T07:26:39.172Z,13.40
2022-11-13T07:29:29.707Z,11.93
2022-11-13T07:32:18.956Z,11.47
2022-11-13T07:35:10.345Z,16.00
2022-11-13T07:37:59.619Z,15.50
2022-11-13T07:40:48.746Z,14.80
2022-11-13T07:43:37.618Z,14.77
2022-11-13T07:46:28.383Z,17.63
2022-11-13T07:49:17.468Z,17.80
2022-11-13T07:52:07.048Z,16.85
2022-11-13T07:54:56.425Z,18.10
2022-11-13T07:57:45.928Z,15.73
2022-11-13T08:00:37.422Z,15.13
2022-11-13T08:03:28.722Z,17.87
2022-11-13T08:06:17.902Z,17.63
2022-11-13T08:09:07.409Z,21.40
2022-11-13T08:11:56.403Z,19.17
2022-11-13T08:14:45.381Z,19.30
2022-11-13T08:17:34.932Z,16.80
2022-11-13T08:20:26.050Z,20.57
2022-11-13T08:23:15.336Z,20.67
2022-11-13T08:26:07.046Z,19.33
2022-11-13T08:28:56.592Z,20.40
2022-11-13T08:31:45.963Z,21.13
2022-11-13T08:34:35.644Z,19.50
2022-11-13T08:37:26.660Z,21.57
2022-11-13T08:40:15.947Z,41.83
2022-11-13T08:43:06.084Z,23.45
2022-11-13T08:45:55.785Z,21.65
2022-11-13T08:48:44.653Z,19.35
2022-11-13T08:51:33.396Z,25.20
2022-11-13T08:54:24.181Z,17.88
2022-11-13T08:57:13.345Z,19.25
2022-11-13T09:00:02.711Z,17.27
2022-11-13T09:02:56.048Z,17.58
2022-11-13T09:05:45.068Z,17.05
2022-11-13T09:08:34.494Z,19.55
2022-11-13T09:11:28.042Z,16.15
2022-11-13T09:14:17.117Z,12.38
2022-11-13T09:17:06.159Z,14.45
2022-11-13T09:19:55.771Z,12.93
2022-11-13T09:22:46.855Z,12.55
2022-11-13T09:25:38.214Z,14.50
2022-11-13T09:28:29.172Z,12.65
2022-11-13T09:31:19.147Z,11.60
2022-11-13T09:34:07.932Z,11.30
2022-11-13T09:36:57.032Z,12.27
2022-11-13T09:39:46.303Z,13.52
2022-11-13T09:42:36.763Z,18.48
2022-11-13T09:45:28.203Z,10.63
2022-11-13T09:48:27.613Z,12.20
2022-11-13T09:51:19.839Z,9.05
2022-11-13T09:54:13.841Z,11.68
2022-11-13T09:57:11.108Z,14.88
2022-11-13T10:00:02.914Z,15.10
2022-11-13T10:03:03.263Z,10.52
2022-11-13T10:06:00.648Z,10.77
2022-11-13T10:08:57.700Z,9.38
2022-11-13T10:11:54.780Z,10.18
2022-11-13T10:14:48.008Z,9.02
2022-11-13T10:17:40.485Z,10.25
2022-11-13T10:20:36.115Z,10.98
2022-11-13T10:23:30.838Z,11.55
2022-11-13T10:26:22.997Z,12.65
2022-11-13T10:29:15.178Z,8.02
2022-11-13T10:32:18.238Z,10.80
2022-11-13T10:35:14.372Z,12.38
2022-11-13T10:38:08.938Z,11.35
2022-11-13T10:41:08.135Z,8.70
2022-11-13T10:44:00.972Z,9.55
2022-11-13T10:46:50.853Z,9.02
2022-11-13T10:49:40.411Z,10.45
2022-11-13T10:52:30.515Z,10.95
2022-11-13T10:55:27.222Z,12.15
2022-11-13T10:58:18.337Z,11.85
2022-11-13T11:01:15.804Z,11.52
2022-11-13T11:04:06.587Z,11.02
2022-11-13T11:07:19.137Z,10.55
2022-11-13T11:10:09.158Z,11.40
2022-11-13T11:13:04.488Z,11.10
2022-11-13T11:15:57.554Z,12.48
2022-11-13T11:18:53.119Z,11.50
2022-11-13T11:21:44.727Z,14.98
2022-11-13T11:24:38.505Z,14.10
2022-11-13T11:27:34.544Z,12.32
2022-11-13T11:30:26.750Z,13.05
2022-11-13T11:33:18.862Z,13.65
2022-11-13T11:36:19.533Z,11.30
2022-11-13T11:39:27.500Z,12.68
2022-11-13T11:42:30.323Z,11.65
2022-11-13T11:45:31.905Z,13.02
2022-11-13T11:48:23.374Z,13.93
2022-11-13T11:51:23.125Z,16.73
2022-11-13T11:54:23.232Z,19.73
2022-11-13T11:57:28.244Z,16.10
2022-11-13T12:00:20.024Z,15.52
2022-11-13T12:03:43.030Z,10.55
2022-11-13T12:06:42.938Z,10.80
2022-11-13T12:09:35.238Z,10.73
2022-11-13T12:12:34.284Z,12.75
2022-11-13T12:15:29.433Z,13.95
2022-11-13T12:18:28.091Z,10.77
2022-11-13T12:21:24.822Z,11.38
2022-11-13T12:24:29.096Z,14.05
2022-11-13T12:27:26.444Z,13.45
2022-11-13T12:30:19.305Z,12.30
2022-11-13T12:33:23.228Z,14.45
2022-11-13T12:36:14.605Z,12.20
2022-11-13T12:39:14.687Z,11.40
2022-11-13T12:42:21.088Z,11.13
2022-11-13T12:45:19.968Z,10.38
2022-11-13T12:48:22.930Z,11.05
2022-11-13T12:51:14.130Z,9.93
2022-11-13T12:54:05.992Z,11.75
2022-11-13T12:56:55.639Z,8.93
2022-11-13T12:59:46.898Z,13.90
2022-11-13T13:02:47.406Z,10.57
2022-11-13T13:06:06.802Z,11.23
2022-11-13T13:09:08.629Z,14.77
2022-11-13T13:12:07.117Z,11.90
2022-11-13T13:15:13.641Z,13.38
2022-11-13T13:18:10.637Z,11.57
2022-11-13T13:21:07.090Z,19.25
2022-11-13T13:23:56.802Z,15.55
2022-11-13T13:26:48.944Z,14.85
2022-11-13T13:29:43.895Z,17.73
2022-11-13T13:32:43.016Z,13.80
2022-11-13T13:35:39.139Z,14.45
2022-11-13T13:38:34.702Z,11.98
2022-11-13T13:41:33.861Z,13.10
2022-11-13T13:44:47.535Z,10.95
2022-11-13T13:47:40.657Z,12.32
2022-11-13T13:50:33.795Z,10.95
2022-11-13T13:53:27.311Z,12.25
2022-11-13T13:56:17.320Z,11.95
2022-11-13T13:59:07.954Z,12.55
2022-11-13T14:02:00.088Z,11.40
2022-11-13T14:04:50.712Z,16.02
2022-11-13T14:07:48.329Z,13.45
2022-11-13T14:10:39.239Z,15.52
2022-11-13T14:13:30.752Z,14.40
2022-11-13T14:16:20.456Z,16.80
2022-11-13T14:19:13.635Z,14.90
2022-11-13T14:22:06.590Z,14.18
2022-11-13T14:24:58.802Z,19.05
2022-11-13T14:27:48.293Z,14.05
2022-11-13T14:30:37.249Z,16.88
2022-11-13T14:33:31.286Z,13.85
2022-11-13T14:36:31.812Z,14.27
2022-11-13T14:39:26.203Z,16.13
2022-11-13T14:42:20.074Z,13.20
2022-11-13T14:45:17.761Z,13.30
2022-11-13T14:48:20.275Z,12.50
2022-11-13T14:51:26.171Z,11.52
2022-11-13T14:54:53.311Z,14.70
2022-11-13T14:57:49.236Z,12.93
2022-11-13T15:00:40.874Z,12.73
2022-11-13T15:03:31.957Z,14.93
2022-11-13T15:06:23.799Z,15.27
2022-11-13T15:09:17.255Z,14.60
2022-11-13T15:12:07.124Z,12.55
2022-11-13T15:14:56.499Z,15.90
2022-11-13T15:17:46.053Z,14.75
2022-11-13T15:20:35.276Z,12.82
2022-11-13T15:23:26.668Z,13.43
2022-11-13T15:26:17.188Z,16.40
2022-11-13T15:29:06.485Z,15.25
2022-11-13T15:31:56.249Z,12.60
2022-11-13T15:34:45.782Z,12.90
2022-11-13T15:37:35.103Z,16.92
2022-11-13T15:40:24.482Z,14.55
2022-11-13T15:43:21.314Z,15.00
2022-11-13T15:46:14.908Z,13.80
2022-11-13T15:49:06.000Z,15.35
2022-11-13T15:51:55.601Z,14.75
2022-11-13T15:54:44.921Z,15.20
2022-11-13T15:57:34.978Z,16.73
2022-11-13T16:00:26.587Z,15.63
2022-11-13T16:03:15.860Z,17.80
2022-11-13T16:06:05.752Z,15.90
2022-11-13T16:08:54.484Z,15.05
2022-11-13T16:11:44.998Z,13.82
2022-11-13T16:14:34.429Z,19.30
2022-11-13T16:17:25.300Z,21.33
2022-11-13T16:20:15.631Z,19.13
2022-11-13T16:23:04.964Z,17.05
2022-11-13T16:25:54.879Z,19.08
2022-11-13T16:29:12.274Z,18.42
2022-11-13T16:31:53.971Z,19.60
2022-11-13T16:34:44.357Z,22.08
2022-11-13T16:37:33.526Z,22.55
2022-11-13T16:40:23.751Z,18.83
2022-11-13T16:43:13.597Z,20.00
2022-11-13T16:46:02.957Z,19.63
2022-11-13T16:48:52.180Z,19.38
2022-11-13T16:51:43.125Z,20.60
2022-11-13T16:54:32.363Z,19.73
2022-11-13T16:57:23.124Z,19.73
2022-11-13T17:00:15.349Z,20.63
2022-11-13T17:03:05.011Z,22.67
2022-11-13T17:05:55.252Z,21.48
2022-11-13T17:08:46.584Z,19.52
2022-11-13T17:11:35.490Z,20.02
2022-11-13T17:14:25.278Z,18.27
2022-11-13T17:17:15.004Z,18.70
2022-11-13T17:20:04.303Z,22.73
2022-11-13T17:22:53.927Z,21.55
2022-11-13T17:25:44.885Z,17.35
2022-11-13T17:28:34.672Z,21.45
2022-11-13T17:31:24.360Z,19.55
2022-11-13T17:34:14.000Z,19.77
2022-11-13T17:37:03.400Z,19.30
2022-11-13T17:39:52.941Z,19.10
2022-11-13T17:42:45.330Z,19.27
2022-11-13T17:45:38.226Z,19.02
2022-11-13T17:48:28.117Z,17.60
2022-11-13T17:51:18.028Z,21.25
2022-11-13T17:54:07.298Z,25.35
2022-11-13T17:56:56.418Z,19.98
2022-11-13T17:59:47.629Z,20.52
2022-11-13T18:02:36.712Z,20.88
2022-11-13T18:05:25.543Z,17.63
2022-11-13T18:08:15.110Z,18.55
2022-11-13T18:11:10.018Z,18.52
2022-11-13T18:13:59.189Z,21.13
2022-11-13T18:16:50.154Z,22.20
2022-11-13T18:19:39.567Z,17.42
2022-11-13T18:22:29.069Z,22.65
2022-11-13T18:25:18.474Z,21.85
2022-11-13T18:28:11.279Z,19.77
2022-11-13T18:31:03.330Z,23.73
2022-11-13T18:33:53.836Z,21.98
2022-11-13T18:36:43.203Z,21.48
2022-11-13T18:39:33.333Z,21.17
2022-11-13T18:42:22.970Z,22.42
2022-11-13T18:45:16.644Z,21.50
2022-11-13T18:48:06.169Z,26.50
2022-11-13T18:51:00.338Z,23.48
2022-11-13T18:53:50.456Z,22.75
2022-11-13T18:56:40.874Z,24.48
2022-11-13T18:59:29.867Z,30.70
2022-11-13T19:02:19.365Z,32.50
2022-11-13T19:05:08.940Z,28.05
2022-11-13T19:07:59.301Z,22.48
2022-11-13T19:10:48.750Z,23.58
2022-11-13T19:13:37.895Z,23.95
2022-11-13T19:16:28.417Z,25.98
2022-11-13T19:19:18.394Z,23.77
2022-11-13T19:22:07.651Z,26.00
2022-11-13T19:24:58.281Z,23.08
2022-11-13T19:27:47.895Z,27.15
2022-11-13T19:30:37.329Z,24.83
2022-11-13T19:33:27.673Z,23.30
2022-11-13T19:36:18.220Z,28.85
2022-11-13T19:39:07.962Z,32.38
2022-11-13T19:41:58.961Z,28.65
2022-11-13T19:44:47.924Z,24.20
2022-11-13T19:47:36.984Z,27.63
2022-11-13T19:50:26.046Z,23.08
2022-11-13T19:53:16.143Z,28.17
2022-11-13T19:56:06.116Z,24.05
2022-11-13T19:58:57.271Z,23.83
2022-11-13T20:01:46.221Z,23.60
2022-11-13T20:04:35.750Z,30.63
2022-11-13T20:07:25.173Z,26.50
2022-11-13T20:10:14.745Z,27.00
2022-11-13T20:13:03.912Z,25.08
2022-11-13T20:15:56.300Z,30.75
2022-11-13T20:18:46.620Z,27.85
2022-11-13T20:21:35.717Z,25.83
2022-11-13T20:24:25.026Z,25.90
2022-11-13T20:27:14.131Z,27.30
2022-11-13T20:30:03.712Z,28.08
2022-11-13T20:32:54.813Z,26.08
2022-11-13T20:35:44.305Z,28.60
2022-11-13T20:38:33.311Z,29.48
2022-11-13T20:41:23.966Z,27.75
2022-11-13T20:44:15.825Z,36.28
2022-11-13T20:47:04.755Z,26.30
2022-11-13T20:49:55.535Z,28.67
2022-11-13T20:52:44.620Z,27.92
2022-11-13T20:55:33.924Z,29.48
2022-11-13T20:58:23.477Z,29.52
2022-11-13T21:01:14.362Z,28.98
2022-11-13T21:04:04.039Z,26.80
2022-11-13T21:06:55.240Z,31.85
2022-11-13T21:09:48.798Z,29.13
2022-11-13T21:12:39.038Z,29.83
2022-11-13T21:15:29.451Z,28.88
2022-11-13T21:18:18.563Z,26.10
2022-11-13T21:21:09.139Z,25.08
2022-11-13T21:24:01.762Z,31.52
2022-11-13T21:26:51.698Z,32.10
2022-11-13T21:29:45.554Z,28.77
2022-11-13T21:32:36.499Z,30.80
2022-11-13T21:35:26.143Z,28.35
2022-11-13T21:38:15.262Z,29.27
2022-11-13T21:41:25.967Z,35.42
2022-11-13T21:44:15.486Z,28.92
2022-11-13T21:47:05.020Z,29.38
2022-11-13T21:49:53.679Z,29.23
2022-11-13T21:52:42.788Z,33.50
2022-11-13T21:55:32.185Z,33.38
2022-11-13T21:58:31.352Z,31.07
2022-11-13T22:01:23.079Z,29.63
2022-11-13T22:04:12.576Z,32.95
2022-11-13T22:07:02.530Z,41.17
2022-11-13T22:09:51.581Z,38.30
2022-11-13T22:12:41.262Z,44.08
2022-11-13T22:15:32.442Z,40.05
2022-11-13T22:18:21.705Z,35.03
2022-11-13T22:21:12.354Z,33.28
2022-11-13T22:24:02.821Z,29.80
2022-11-13T22:26:52.162Z,31.98
2022-11-13T22:29:41.429Z,35.38
2022-11-13T22:32:32.206Z,31.40
2022-11-13T22:35:21.474Z,31.58
2022-11-13T22:38:11.008Z,32.13
2022-11-13T22:41:05.557Z,32.20
2022-11-13T22:43:55.834Z,35.17
2022-11-13T22:46:44.776Z,31.30
2022-11-13T22:49:35.397Z,34.72
2022-11-13T22:52:24.543Z,32.47
2022-11-13T22:55:13.810Z,33.03
2022-11-13T22:58:03.412Z,35.92
2022-11-13T23:00:52.216Z,30.95
2022-11-13T23:03:43.619Z,32.22
2022-11-13T23:06:36.425Z,32.47
2022-11-13T23:09:27.433Z,33.53
2022-11-13T23:12:16.628Z,31.38
2022-11-13T23:15:06.605Z,35.33
2022-11-13T23:17:55.404Z,33.30
2022-11-13T23:20:45.413Z,34.45
2022-11-13T23:23:36.938Z,33.88
2022-11-13T23:26:26.601Z,37.90
2022-11-13T23:29:16.235Z,33.63
2022-11-13T23:32:05.329Z,31.85
2022-11-13T23:34:59.168Z,36.03
2022-11-13T23:37:49.514Z,30.38
2022-11-13T23:40:40.153Z,35.58
2022-11-13T23:44:02.129Z,31.50
2022-11-13T23:46:43.332Z,31.98
2022-11-13T23:49:32.866Z,28.55
2022-11-13T23:52:22.064Z,33.37
2022-11-13T23:55:12.092Z,31.70
2022-11-13T23:58:03.032Z,32.50
